sensor_id;sensor_type;location;lat;lon;timestamp;pressure;altitude;pressure_sealevel;temperature;humidity
11487;BME280;10510;47.942;9.442;2023-04-06T00:01:30;94732.38;;;-1.22;100.00
11487;BME280;10510;47.942;9.442;2023-04-06T00:03:30;94722.13;;;-1.22;100.00
11487;BME280;10510;47.942;9.442;2023-04-06T00:05:30;94727.25;;;-1.22;100.00
11487;BME280;10510;47.942;9.442;2023-04-06T00:07:31;94730.84;;;-1.25;100.00
11487;BME280;10510;47.942;9.442;2023-04-06T00:09:33;94727.47;;;-1.25;100.00
11487;BME280;10510;47.942;9.442;2023-04-06T00:11:33;94725.00;;;-1.27;100.00
11487;BME280;10510;47.942;9.442;2023-04-06T00:13:34;94720.72;;;-1.26;100.00
11487;BME280;10510;47.942;9.442;2023-04-06T00:15:34;94722.34;;;-1.25;100.00
11487;BME280;10510;47.942;9.442;2023-04-06T00:17:34;94717.19;;;-1.25;100.00
11487;BME280;10510;47.942;9.442;2023-04-06T00:19:35;94719.78;;;-1.25;100.00
11487;BME280;10510;47.942;9.442;2023-04-06T00:21:35;94718.03;;;-1.25;100.00
11487;BME280;10510;47.942;9.442;2023-04-06T00:23:35;94714.63;;;-1.25;100.00
11487;BME280;10510;47.942;9.442;2023-04-06T00:25:35;94717.19;;;-1.25;100.00
11487;BME280;10510;47.942;9.442;2023-04-06T00:27:37;94714.63;;;-1.25;100.00
11487;BME280;10510;47.942;9.442;2023-04-06T00:29:37;94714.63;;;-1.25;100.00
11487;BME280;10510;47.942;9.442;2023-04-06T00:31:38;94711.34;;;-1.27;100.00
11487;BME280;10510;47.942;9.442;2023-04-06T00:33:38;94713.25;;;-1.29;100.00
11487;BME280;10510;47.942;9.442;2023-04-06T00:35:39;94710.16;;;-1.34;100.00
11487;BME280;10510;47.942;9.442;2023-04-06T00:37:39;94706.28;;;-1.40;100.00
11487;BME280;10510;47.942;9.442;2023-04-06T00:39:40;94697.06;;;-1.43;100.00
11487;BME280;10510;47.942;9.442;2023-04-06T00:41:46;94704.97;;;-1.46;100.00
11487;BME280;10510;47.942;9.442;2023-04-06T00:43:49;94705.06;;;-1.47;100.00
11487;BME280;10510;47.942;9.442;2023-04-06T00:45:49;94711.25;;;-1.50;100.00
11487;BME280;10510;47.942;9.442;2023-04-06T00:47:50;94710.84;;;-1.56;100.00
11487;BME280;10510;47.942;9.442;2023-04-06T00:49:50;94708.34;;;-1.69;100.00
11487;BME280;10510;47.942;9.442;2023-04-06T00:51:50;94714.13;;;-1.78;100.00
11487;BME280;10510;47.942;9.442;2023-04-06T00:53:51;94708.47;;;-1.84;100.00
11487;BME280;10510;47.942;9.442;2023-04-06T00:55:51;94704.16;;;-1.83;100.00
11487;BME280;10510;47.942;9.442;2023-04-06T00:57:52;94711.03;;;-1.84;100.00
11487;BME280;10510;47.942;9.442;2023-04-06T00:59:53;94704.28;;;-1.85;100.00
11487;BME280;10510;47.942;9.442;2023-04-06T01:01:53;94711.38;;;-1.88;100.00
11487;BME280;10510;47.942;9.442;2023-04-06T01:03:53;94708.09;;;-1.90;100.00
11487;BME280;10510;47.942;9.442;2023-04-06T01:05:54;94709.84;;;-1.91;100.00
11487;BME280;10510;47.942;9.442;2023-04-06T01:07:58;94701.22;;;-1.90;100.00
11487;BME280;10510;47.942;9.442;2023-04-06T01:09:58;94705.53;;;-1.90;100.00
11487;BME280;10510;47.942;9.442;2023-04-06T01:11:58;94701.44;;;-1.93;100.00
11487;BME280;10510;47.942;9.442;2023-04-06T01:13:59;94695.72;;;-1.96;100.00
11487;BME280;10510;47.942;9.442;2023-04-06T01:15:59;94697.75;;;-2.01;100.00
11487;BME280;10510;47.942;9.442;2023-04-06T01:17:59;94692.84;;;-2.04;100.00
11487;BME280;10510;47.942;9.442;2023-04-06T01:20:00;94691.09;;;-2.04;100.00
11487;BME280;10510;47.942;9.442;2023-04-06T01:22:00;94696.13;;;-2.02;100.00
11487;BME280;10510;47.942;9.442;2023-04-06T01:24:00;94683.41;;;-2.04;100.00
11487;BME280;10510;47.942;9.442;2023-04-06T01:26:01;94683.75;;;-2.09;100.00
11487;BME280;10510;47.942;9.442;2023-04-06T01:28:01;94683.84;;;-2.10;100.00
11487;BME280;10510;47.942;9.442;2023-04-06T01:30:01;94682.31;;;-2.13;100.00
11487;BME280;10510;47.942;9.442;2023-04-06T01:32:02;94679.97;;;-2.16;100.00
11487;BME280;10510;47.942;9.442;2023-04-06T01:34:03;94675.66;;;-2.15;100.00
11487;BME280;10510;47.942;9.442;2023-04-06T01:36:03;94681.59;;;-2.15;100.00
11487;BME280;10510;47.942;9.442;2023-04-06T01:38:04;94679.88;;;-2.14;100.00
11487;BME280;10510;47.942;9.442;2023-04-06T01:40:05;94672.88;;;-2.12;100.00
11487;BME280;10510;47.942;9.442;2023-04-06T01:42:05;94669.19;;;-2.08;100.00
11487;BME280;10510;47.942;9.442;2023-04-06T01:44:06;94674.13;;;-2.05;100.00
11487;BME280;10510;47.942;9.442;2023-04-06T01:46:06;94669.69;;;-2.03;100.00
11487;BME280;10510;47.942;9.442;2023-04-06T01:48:07;94672.97;;;-2.01;100.00
11487;BME280;10510;47.942;9.442;2023-04-06T01:50:07;94673.69;;;-1.99;100.00
11487;BME280;10510;47.942;9.442;2023-04-06T01:52:08;94670.91;;;-1.96;100.00
11487;BME280;10510;47.942;9.442;2023-04-06T01:54:08;94666.59;;;-1.95;100.00
11487;BME280;10510;47.942;9.442;2023-04-06T01:56:08;94664.63;;;-1.92;100.00
11487;BME280;10510;47.942;9.442;2023-04-06T01:58:09;94664.63;;;-1.92;100.00
11487;BME280;10510;47.942;9.442;2023-04-06T02:00:10;94676.41;;;-1.89;100.00
11487;BME280;10510;47.942;9.442;2023-04-06T02:02:11;94667.91;;;-1.90;100.00
11487;BME280;10510;47.942;9.442;2023-04-06T02:04:12;94664.75;;;-1.93;100.00
11487;BME280;10510;47.942;9.442;2023-04-06T02:06:14;94671.50;;;-1.92;100.00
11487;BME280;10510;47.942;9.442;2023-04-06T02:08:14;94665.56;;;-1.93;100.00
11487;BME280;10510;47.942;9.442;2023-04-06T02:10:15;94675.59;;;-1.90;100.00
11487;BME280;10510;47.942;9.442;2023-04-06T02:12:15;94676.53;;;-1.91;100.00
11487;BME280;10510;47.942;9.442;2023-04-06T02:14:15;94672.09;;;-1.89;100.00
11487;BME280;10510;47.942;9.442;2023-04-06T02:16:15;94667.59;;;-1.85;100.00
11487;BME280;10510;47.942;9.442;2023-04-06T02:18:16;94669.75;;;-1.79;100.00
11487;BME280;10510;47.942;9.442;2023-04-06T02:20:18;94672.91;;;-1.75;100.00
11487;BME280;10510;47.942;9.442;2023-04-06T02:22:18;94665.00;;;-1.72;100.00
11487;BME280;10510;47.942;9.442;2023-04-06T02:24:18;94657.41;;;-1.74;100.00
11487;BME280;10510;47.942;9.442;2023-04-06T02:26:19;94669.41;;;-1.74;100.00
11487;BME280;10510;47.942;9.442;2023-04-06T02:28:20;94668.50;;;-1.73;100.00
11487;BME280;10510;47.942;9.442;2023-04-06T02:30:20;94665.94;;;-1.73;100.00
11487;BME280;10510;47.942;9.442;2023-04-06T02:32:20;94666.84;;;-1.74;100.00
11487;BME280;10510;47.942;9.442;2023-04-06T02:34:21;94662.44;;;-1.72;100.00
11487;BME280;10510;47.942;9.442;2023-04-06T02:36:21;94662.22;;;-1.69;100.00
11487;BME280;10510;47.942;9.442;2023-04-06T02:38:21;94658.72;;;-1.68;100.00
11487;BME280;10510;47.942;9.442;2023-04-06T02:40:21;94659.44;;;-1.66;100.00
11487;BME280;10510;47.942;9.442;2023-04-06T02:42:22;94662.72;;;-1.64;100.00
11487;BME280;10510;47.942;9.442;2023-04-06T02:44:22;94654.22;;;-1.65;100.00
11487;BME280;10510;47.942;9.442;2023-04-06T02:46:22;94656.66;;;-1.63;100.00
11487;BME280;10510;47.942;9.442;2023-04-06T02:48:23;94656.66;;;-1.63;100.00
11487;BME280;10510;47.942;9.442;2023-04-06T02:50:23;94658.28;;;-1.62;100.00
11487;BME280;10510;47.942;9.442;2023-04-06T02:52:23;94666.31;;;-1.67;100.00
11487;BME280;10510;47.942;9.442;2023-04-06T02:54:24;94660.91;;;-1.75;100.00
11487;BME280;10510;47.942;9.442;2023-04-06T02:56:24;94656.09;;;-1.79;100.00
11487;BME280;10510;47.942;9.442;2023-04-06T02:58:25;94658.97;;;-1.84;100.00
11487;BME280;10510;47.942;9.442;2023-04-06T03:00:25;94656.63;;;-1.87;100.00
11487;BME280;10510;47.942;9.442;2023-04-06T03:02:25;94655.09;;;-1.90;100.00
11487;BME280;10510;47.942;9.442;2023-04-06T03:04:25;94657.16;;;-1.95;100.00
11487;BME280;10510;47.942;9.442;2023-04-06T03:06:26;94655.75;;;-1.99;100.00
11487;BME280;10510;47.942;9.442;2023-04-06T03:08:26;94651.75;;;-2.03;100.00
11487;BME280;10510;47.942;9.442;2023-04-06T03:10:26;94650.34;;;-2.07;100.00
11487;BME280;10510;47.942;9.442;2023-04-06T03:12:26;94659.84;;;-2.09;100.00
11487;BME280;10510;47.942;9.442;2023-04-06T03:14:27;94649.75;;;-2.11;100.00
11487;BME280;10510;47.942;9.442;2023-04-06T03:16:28;94649.00;;;-2.13;100.00
11487;BME280;10510;47.942;9.442;2023-04-06T03:18:28;94655.16;;;-2.15;100.00
11487;BME280;10510;47.942;9.442;2023-04-06T03:20:28;94657.25;;;-2.20;100.00
11487;BME280;10510;47.942;9.442;2023-04-06T03:22:29;94654.38;;;-2.29;100.00
11487;BME280;10510;47.942;9.442;2023-04-06T03:24:29;94654.09;;;-2.37;100.00
11487;BME280;10510;47.942;9.442;2023-04-06T03:26:30;94660.34;;;-2.41;100.00
11487;BME280;10510;47.942;9.442;2023-04-06T03:28:30;94663.41;;;-2.48;100.00
11487;BME280;10510;47.942;9.442;2023-04-06T03:30:30;94660.34;;;-2.54;100.00
11487;BME280;10510;47.942;9.442;2023-04-06T03:32:31;94656.56;;;-2.61;100.00
11487;BME280;10510;47.942;9.442;2023-04-06T03:34:31;94661.97;;;-2.65;100.00
11487;BME280;10510;47.942;9.442;2023-04-06T03:36:31;94651.13;;;-2.69;100.00
11487;BME280;10510;47.942;9.442;2023-04-06T03:38:32;94659.84;;;-2.71;100.00
11487;BME280;10510;47.942;9.442;2023-04-06T03:40:32;94658.41;;;-2.76;100.00
11487;BME280;10510;47.942;9.442;2023-04-06T03:42:32;94656.97;;;-2.80;100.00
11487;BME280;10510;47.942;9.442;2023-04-06T03:44:33;94659.84;;;-2.84;100.00
11487;BME280;10510;47.942;9.442;2023-04-06T03:46:33;94653.47;;;-2.91;100.00
11487;BME280;10510;47.942;9.442;2023-04-06T03:48:33;94668.34;;;-2.97;100.00
11487;BME280;10510;47.942;9.442;2023-04-06T03:50:33;94666.06;;;-3.01;100.00
11487;BME280;10510;47.942;9.442;2023-04-06T03:52:34;94671.38;;;-3.04;100.00
11487;BME280;10510;47.942;9.442;2023-04-06T03:54:35;94668.28;;;-3.09;100.00
11487;BME280;10510;47.942;9.442;2023-04-06T03:56:35;94672.78;;;-3.13;100.00
11487;BME280;10510;47.942;9.442;2023-04-06T03:58:35;94668.69;;;-3.15;100.00
11487;BME280;10510;47.942;9.442;2023-04-06T04:00:35;94668.91;;;-3.18;100.00
11487;BME280;10510;47.942;9.442;2023-04-06T04:02:36;94662.97;;;-3.19;100.00
11487;BME280;10510;47.942;9.442;2023-04-06T04:04:36;94672.38;;;-3.20;100.00
11487;BME280;10510;47.942;9.442;2023-04-06T04:06:36;94669.00;;;-3.20;100.00
11487;BME280;10510;47.942;9.442;2023-04-06T04:08:36;94669.91;;;-3.21;100.00
11487;BME280;10510;47.942;9.442;2023-04-06T04:10:37;94670.84;;;-3.22;100.00
11487;BME280;10510;47.942;9.442;2023-04-06T04:12:37;94670.94;;;-3.24;100.00
11487;BME280;10510;47.942;9.442;2023-04-06T04:14:37;94670.94;;;-3.24;100.00
11487;BME280;10510;47.942;9.442;2023-04-06T04:16:37;94671.84;;;-3.25;100.00
11487;BME280;10510;47.942;9.442;2023-04-06T04:18:39;94668.69;;;-3.28;100.00
11487;BME280;10510;47.942;9.442;2023-04-06T04:20:39;94672.16;;;-3.29;100.00
11487;BME280;10510;47.942;9.442;2023-04-06T04:22:40;94674.59;;;-3.28;100.00
11487;BME280;10510;47.942;9.442;2023-04-06T04:24:40;94680.44;;;-3.26;100.00
11487;BME280;10510;47.942;9.442;2023-04-06T04:26:40;94679.00;;;-3.30;100.00
11487;BME280;10510;47.942;9.442;2023-04-06T04:28:41;94676.63;;;-3.33;100.00
11487;BME280;10510;47.942;9.442;2023-04-06T04:30:41;94678.50;;;-3.35;100.00
11487;BME280;10510;47.942;9.442;2023-04-06T04:32:41;94680.13;;;-3.34;100.00
11487;BME280;10510;47.942;9.442;2023-04-06T04:34:42;94677.47;;;-3.32;100.00
11487;BME280;10510;47.942;9.442;2023-04-06T04:36:42;94680.13;;;-3.34;100.00
11487;BME280;10510;47.942;9.442;2023-04-06T04:38:42;94686.97;;;-3.34;100.00
11487;BME280;10510;47.942;9.442;2023-04-06T04:40:42;94688.91;;;-3.38;100.00
11487;BME280;10510;47.942;9.442;2023-04-06T04:42:43;94685.72;;;-3.42;100.00
11487;BME280;10510;47.942;9.442;2023-04-06T04:44:43;94685.41;;;-3.50;100.00
11487;BME280;10510;47.942;9.442;2023-04-06T04:46:43;94684.94;;;-3.56;100.00
11487;BME280;10510;47.942;9.442;2023-04-06T04:48:43;94686.88;;;-3.60;100.00
11487;BME280;10510;47.942;9.442;2023-04-06T04:50:44;94687.00;;;-3.61;100.00
11487;BME280;10510;47.942;9.442;2023-04-06T04:52:44;94695.56;;;-3.62;100.00
11487;BME280;10510;47.942;9.442;2023-04-06T04:54:44;94685.53;;;-3.66;100.00
11487;BME280;10510;47.942;9.442;2023-04-06T04:56:47;94690.63;;;-3.66;100.00
11487;BME280;10510;47.942;9.442;2023-04-06T04:58:48;94689.94;;;-3.68;100.00
11487;BME280;10510;47.942;9.442;2023-04-06T05:00:48;94694.00;;;-3.65;100.00
11487;BME280;10510;47.942;9.442;2023-04-06T05:02:48;94699.84;;;-3.63;100.00
11487;BME280;10510;47.942;9.442;2023-04-06T05:04:52;94704.22;;;-3.65;100.00
11487;BME280;10510;47.942;9.442;2023-04-06T05:07:05;94698.22;;;-3.64;100.00
11487;BME280;10510;47.942;9.442;2023-04-06T05:09:06;94693.19;;;-3.66;100.00
11487;BME280;10510;47.942;9.442;2023-04-06T05:11:06;94700.78;;;-3.64;100.00
11487;BME280;10510;47.942;9.442;2023-04-06T05:13:06;94699.03;;;-3.63;100.00
11487;BME280;10510;47.942;9.442;2023-04-06T05:15:07;94699.03;;;-3.63;100.00
11487;BME280;10510;47.942;9.442;2023-04-06T05:17:08;94696.47;;;-3.63;100.00
11487;BME280;10510;47.942;9.442;2023-04-06T05:19:09;94704.97;;;-3.63;100.00
11487;BME280;10510;47.942;9.442;2023-04-06T05:21:11;94702.31;;;-3.61;100.00
11487;BME280;10510;47.942;9.442;2023-04-06T05:23:11;94706.50;;;-3.60;100.00
11487;BME280;10510;47.942;9.442;2023-04-06T05:25:13;94703.94;;;-3.60;100.00
11487;BME280;10510;47.942;9.442;2023-04-06T05:27:13;94707.25;;;-3.58;100.00
11487;BME280;10510;47.942;9.442;2023-04-06T05:29:14;94704.69;;;-3.58;100.00
11487;BME280;10510;47.942;9.442;2023-04-06T05:31:15;94708.88;;;-3.57;100.00
11487;BME280;10510;47.942;9.442;2023-04-06T05:33:16;94713.97;;;-3.57;100.00
11487;BME280;10510;47.942;9.442;2023-04-06T05:35:16;94715.59;;;-3.56;100.00
11487;BME280;10510;47.942;9.442;2023-04-06T05:37:17;94719.53;;;-3.51;100.00
11487;BME280;10510;47.942;9.442;2023-04-06T05:39:17;94720.13;;;-3.47;100.00
11487;BME280;10510;47.942;9.442;2023-04-06T05:41:18;94713.81;;;-3.42;100.00
11487;BME280;10510;47.942;9.442;2023-04-06T05:43:18;94717.72;;;-3.36;100.00
11487;BME280;10510;47.942;9.442;2023-04-06T05:45:18;94720.75;;;-3.29;100.00
11487;BME280;10510;47.942;9.442;2023-04-06T05:47:19;94718.81;;;-3.26;100.00
11487;BME280;10510;47.942;9.442;2023-04-06T05:49:19;94728.63;;;-3.20;100.00
11487;BME280;10510;47.942;9.442;2023-04-06T05:51:19;94720.56;;;-3.13;100.00
11487;BME280;10510;47.942;9.442;2023-04-06T05:53:20;94722.72;;;-3.07;100.00
11487;BME280;10510;47.942;9.442;2023-04-06T05:55:21;94727.44;;;-3.01;100.00
11487;BME280;10510;47.942;9.442;2023-04-06T05:57:21;94721.13;;;-2.95;100.00
11487;BME280;10510;47.942;9.442;2023-04-06T05:59:22;94724.00;;;-2.87;100.00
11487;BME280;10510;47.942;9.442;2023-04-06T06:01:23;94725.13;;;-2.79;100.00
11487;BME280;10510;47.942;9.442;2023-04-06T06:03:24;94733.03;;;-2.69;100.00
11487;BME280;10510;47.942;9.442;2023-04-06T06:05:24;94731.59;;;-2.60;100.00
11487;BME280;10510;47.942;9.442;2023-04-06T06:07:24;94719.94;;;-2.52;100.00
11487;BME280;10510;47.942;9.442;2023-04-06T06:09:25;94724.44;;;-2.42;100.00
11487;BME280;10510;47.942;9.442;2023-04-06T06:11:26;94734.19;;;-2.35;100.00
11487;BME280;10510;47.942;9.442;2023-04-06T06:13:27;94731.72;;;-2.23;100.00
11487;BME280;10510;47.942;9.442;2023-04-06T06:15:27;94734.34;;;-2.12;100.00
11487;BME280;10510;47.942;9.442;2023-04-06T06:17:27;94731.88;;;-2.01;100.00
11487;BME280;10510;47.942;9.442;2023-04-06T06:19:28;94731.97;;;-1.90;100.00
11487;BME280;10510;47.942;9.442;2023-04-06T06:21:28;94726.94;;;-1.78;100.00
11487;BME280;10510;47.942;9.442;2023-04-06T06:23:28;94730.59;;;-1.70;100.00
11487;BME280;10510;47.942;9.442;2023-04-06T06:25:29;94729.84;;;-1.59;100.00
11487;BME280;10510;47.942;9.442;2023-04-06T06:27:30;94725.50;;;-1.46;100.00
11487;BME280;10510;47.942;9.442;2023-04-06T06:29:31;94732.22;;;-1.32;100.00
11487;BME280;10510;47.942;9.442;2023-04-06T06:31:31;94735.44;;;-1.17;100.00
11487;BME280;10510;47.942;9.442;2023-04-06T06:33:32;94737.94;;;-1.04;100.00
11487;BME280;10510;47.942;9.442;2023-04-06T06:35:32;94730.78;;;-0.88;100.00
11487;BME280;10510;47.942;9.442;2023-04-06T06:37:32;94732.81;;;-0.69;100.00
11487;BME280;10510;47.942;9.442;2023-04-06T06:39:33;94733.53;;;-0.44;100.00
11487;BME280;10510;47.942;9.442;2023-04-06T06:41:33;94730.78;;;-0.19;100.00
11487;BME280;10510;47.942;9.442;2023-04-06T06:43:33;94731.38;;;0.07;100.00
11487;BME280;10510;47.942;9.442;2023-04-06T06:45:34;94726.56;;;0.36;100.00
11487;BME280;10510;47.942;9.442;2023-04-06T06:47:34;94732.69;;;0.67;100.00
11487;BME280;10510;47.942;9.442;2023-04-06T06:49:34;94734.63;;;0.98;100.00
11487;BME280;10510;47.942;9.442;2023-04-06T06:51:35;94732.38;;;1.25;100.00
11487;BME280;10510;47.942;9.442;2023-04-06T06:53:35;94732.28;;;1.48;100.00
11487;BME280;10510;47.942;9.442;2023-04-06T06:55:35;94727.56;;;1.74;100.00
11487;BME280;10510;47.942;9.442;2023-04-06T06:57:36;94731.22;;;2.02;100.00
11487;BME280;10510;47.942;9.442;2023-04-06T06:59:36;94740.28;;;2.27;100.00
11487;BME280;10510;47.942;9.442;2023-04-06T07:01:36;94734.66;;;2.53;100.00
11487;BME280;10510;47.942;9.442;2023-04-06T07:03:37;94734.97;;;2.79;100.00
11487;BME280;10510;47.942;9.442;2023-04-06T07:05:37;94738.28;;;3.00;100.00
11487;BME280;10510;47.942;9.442;2023-04-06T07:07:37;94734.34;;;3.15;100.00
11487;BME280;10510;47.942;9.442;2023-04-06T07:09:38;94741.53;;;3.41;100.00
11487;BME280;10510;47.942;9.442;2023-04-06T07:11:38;94742.06;;;3.64;100.00
11487;BME280;10510;47.942;9.442;2023-04-06T07:13:38;94736.47;;;3.78;100.00
11487;BME280;10510;47.942;9.442;2023-04-06T07:15:38;94744.84;;;4.00;100.00
11487;BME280;10510;47.942;9.442;2023-04-06T07:17:39;94740.16;;;4.23;100.00
11487;BME280;10510;47.942;9.442;2023-04-06T07:19:41;94738.00;;;4.46;100.00
11487;BME280;10510;47.942;9.442;2023-04-06T07:21:41;94738.59;;;4.67;100.00
11487;BME280;10510;47.942;9.442;2023-04-06T07:23:41;94742.41;;;4.91;100.00
11487;BME280;10510;47.942;9.442;2023-04-06T07:25:42;94745.84;;;5.09;100.00
11487;BME280;10510;47.942;9.442;2023-04-06T07:27:42;94752.28;;;5.23;100.00
11487;BME280;10510;47.942;9.442;2023-04-06T07:29:42;94741.47;;;5.45;100.00
11487;BME280;10510;47.942;9.442;2023-04-06T07:31:43;94741.31;;;5.65;100.00
11487;BME280;10510;47.942;9.442;2023-04-06T07:33:43;94748.22;;;5.82;100.00
11487;BME280;10510;47.942;9.442;2023-04-06T07:35:44;94737.34;;;5.97;100.00
11487;BME280;10510;47.942;9.442;2023-04-06T07:37:45;94739.88;;;6.14;100.00
11487;BME280;10510;47.942;9.442;2023-04-06T07:39:45;94744.72;;;6.35;100.00
11487;BME280;10510;47.942;9.442;2023-04-06T07:41:46;94735.72;;;6.56;100.00
11487;BME280;10510;47.942;9.442;2023-04-06T07:43:46;94738.22;;;6.74;100.00
11487;BME280;10510;47.942;9.442;2023-04-06T07:45:47;94743.63;;;6.97;100.00
11487;BME280;10510;47.942;9.442;2023-04-06T07:47:47;94740.13;;;7.22;100.00
11487;BME280;10510;47.942;9.442;2023-04-06T07:49:47;94742.09;;;7.45;100.00
11487;BME280;10510;47.942;9.442;2023-04-06T07:51:48;94738.53;;;7.70;100.00
11487;BME280;10510;47.942;9.442;2023-04-06T07:53:48;94734.06;;;8.28;100.00
11487;BME280;10510;47.942;9.442;2023-04-06T07:55:50;94729.16;;;8.89;100.00
11487;BME280;10510;47.942;9.442;2023-04-06T07:57:50;94733.72;;;9.18;100.00
11487;BME280;10510;47.942;9.442;2023-04-06T07:59:50;94727.34;;;9.44;100.00
11487;BME280;10510;47.942;9.442;2023-04-06T08:01:51;94720.56;;;9.81;100.00
11487;BME280;10510;47.942;9.442;2023-04-06T08:03:51;94723.59;;;10.07;100.00
11487;BME280;10510;47.942;9.442;2023-04-06T08:05:52;94724.66;;;10.36;100.00
11487;BME280;10510;47.942;9.442;2023-04-06T08:07:52;94730.13;;;10.71;100.00
11487;BME280;10510;47.942;9.442;2023-04-06T08:09:53;94729.13;;;10.72;100.00
11487;BME280;10510;47.942;9.442;2023-04-06T08:11:53;94727.97;;;10.89;100.00
11487;BME280;10510;47.942;9.442;2023-04-06T08:13:54;94726.03;;;11.34;100.00
11487;BME280;10510;47.942;9.442;2023-04-06T08:15:56;94722.97;;;11.73;100.00
11487;BME280;10510;47.942;9.442;2023-04-06T08:17:57;94723.75;;;12.17;100.00
11487;BME280;10510;47.942;9.442;2023-04-06T08:19:57;94725.22;;;12.54;100.00
11487;BME280;10510;47.942;9.442;2023-04-06T08:21:58;94730.22;;;12.84;100.00
11487;BME280;10510;47.942;9.442;2023-04-06T08:23:58;94723.88;;;13.06;100.00
11487;BME280;10510;47.942;9.442;2023-04-06T08:25:58;94724.06;;;13.11;100.00
11487;BME280;10510;47.942;9.442;2023-04-06T08:27:58;94721.28;;;13.19;100.00
11487;BME280;10510;47.942;9.442;2023-04-06T08:29:59;94727.09;;;13.08;100.00
11487;BME280;10510;47.942;9.442;2023-04-06T08:31:59;94719.03;;;13.16;100.00
11487;BME280;10510;47.942;9.442;2023-04-06T08:34:01;94723.13;;;13.26;100.00
11487;BME280;10510;47.942;9.442;2023-04-06T08:36:09;94730.75;;;13.21;100.00
11487;BME280;10510;47.942;9.442;2023-04-06T08:38:09;94727.28;;;13.00;100.00
11487;BME280;10510;47.942;9.442;2023-04-06T08:40:10;94733.19;;;13.22;100.00
11487;BME280;10510;47.942;9.442;2023-04-06T08:42:20;94731.69;;;13.48;100.00
11487;BME280;10510;47.942;9.442;2023-04-06T08:44:20;94727.66;;;13.45;100.00
11487;BME280;10510;47.942;9.442;2023-04-06T08:46:21;94731.28;;;13.51;100.00
11487;BME280;10510;47.942;9.442;2023-04-06T08:48:23;94723.03;;;13.67;100.00
11487;BME280;10510;47.942;9.442;2023-04-06T08:50:24;94726.09;;;13.84;100.00
11487;BME280;10510;47.942;9.442;2023-04-06T08:52:26;94721.84;;;14.09;100.00
11487;BME280;10510;47.942;9.442;2023-04-06T08:54:27;94722.44;;;14.25;100.00
11487;BME280;10510;47.942;9.442;2023-04-06T08:56:28;94720.22;;;14.28;100.00
11487;BME280;10510;47.942;9.442;2023-04-06T08:58:35;94722.66;;;14.17;100.00
11487;BME280;10510;47.942;9.442;2023-04-06T09:00:38;94721.06;;;14.09;100.00
11487;BME280;10510;47.942;9.442;2023-04-06T09:02:42;94718.41;;;14.09;100.00
11487;BME280;10510;47.942;9.442;2023-04-06T09:04:44;94719.63;;;14.13;100.00
11487;BME280;10510;47.942;9.442;2023-04-06T09:06:45;94714.53;;;14.31;100.00
11487;BME280;10510;47.942;9.442;2023-04-06T09:08:46;94711.06;;;14.71;100.00
11487;BME280;10510;47.942;9.442;2023-04-06T09:10:47;94716.91;;;14.86;100.00
11487;BME280;10510;47.942;9.442;2023-04-06T09:12:48;94703.09;;;14.91;100.00
11487;BME280;10510;47.942;9.442;2023-04-06T09:14:48;94706.44;;;15.18;100.00
11487;BME280;10510;47.942;9.442;2023-04-06T09:16:48;94709.41;;;15.28;100.00
11487;BME280;10510;47.942;9.442;2023-04-06T09:18:49;94709.97;;;14.98;100.00
11487;BME280;10510;47.942;9.442;2023-04-06T09:21:03;94715.66;;;14.82;100.00
11487;BME280;10510;47.942;9.442;2023-04-06T09:23:04;94718.41;;;14.02;100.00
11487;BME280;10510;47.942;9.442;2023-04-06T09:25:05;94727.69;;;14.12;100.00
11487;BME280;10510;47.942;9.442;2023-04-06T09:27:05;94718.19;;;14.11;100.00
11487;BME280;10510;47.942;9.442;2023-04-06T09:29:05;94701.00;;;14.41;100.00
11487;BME280;10510;47.942;9.442;2023-04-06T09:31:06;94704.63;;;14.60;100.00
11487;BME280;10510;47.942;9.442;2023-04-06T09:33:06;94710.91;;;14.32;100.00
11487;BME280;10510;47.942;9.442;2023-04-06T09:35:08;94713.31;;;13.61;100.00
11487;BME280;10510;47.942;9.442;2023-04-06T09:37:21;94714.59;;;13.17;100.00
11487;BME280;10510;47.942;9.442;2023-04-06T09:39:21;94711.25;;;12.82;100.00
11487;BME280;10510;47.942;9.442;2023-04-06T09:41:28;94704.50;;;13.07;100.00
11487;BME280;10510;47.942;9.442;2023-04-06T09:43:29;94702.41;;;13.51;100.00
11487;BME280;10510;47.942;9.442;2023-04-06T09:45:30;94704.25;;;13.63;100.00
11487;BME280;10510;47.942;9.442;2023-04-06T09:47:31;94701.84;;;13.69;100.00
11487;BME280;10510;47.942;9.442;2023-04-06T09:49:33;94701.44;;;13.98;100.00
11487;BME280;10510;47.942;9.442;2023-04-06T09:51:39;94692.34;;;13.74;100.00
11487;BME280;10510;47.942;9.442;2023-04-06T09:53:41;94699.41;;;13.87;100.00
11487;BME280;10510;47.942;9.442;2023-04-06T09:55:45;94694.16;;;14.27;100.00
11487;BME280;10510;47.942;9.442;2023-04-06T09:57:57;94695.53;;;14.56;100.00
11487;BME280;10510;47.942;9.442;2023-04-06T10:00:05;94693.28;;;14.46;100.00
11487;BME280;10510;47.942;9.442;2023-04-06T10:02:34;94696.47;;;14.82;100.00
11487;BME280;10510;47.942;9.442;2023-04-06T10:04:43;94684.53;;;15.24;100.00
11487;BME280;10510;47.942;9.442;2023-04-06T10:06:44;94695.22;;;15.36;100.00
11487;BME280;10510;47.942;9.442;2023-04-06T10:08:49;94694.22;;;15.30;100.00
11487;BME280;10510;47.942;9.442;2023-04-06T10:10:52;94697.28;;;15.27;100.00
11487;BME280;10510;47.942;9.442;2023-04-06T10:12:53;94694.06;;;14.67;100.00
11487;BME280;10510;47.942;9.442;2023-04-06T10:14:55;94687.44;;;14.58;100.00
11487;BME280;10510;47.942;9.442;2023-04-06T10:16:57;94693.69;;;14.63;100.00
11487;BME280;10510;47.942;9.442;2023-04-06T10:19:03;94689.00;;;14.72;100.00
11487;BME280;10510;47.942;9.442;2023-04-06T10:21:12;94692.66;;;14.71;100.00
11487;BME280;10510;47.942;9.442;2023-04-06T10:23:26;94697.34;;;14.56;100.00
11487;BME280;10510;47.942;9.442;2023-04-06T10:25:31;94688.47;;;14.23;100.00
11487;BME280;10510;47.942;9.442;2023-04-06T10:27:32;94685.47;;;14.13;100.00
11487;BME280;10510;47.942;9.442;2023-04-06T10:29:46;94684.47;;;13.94;100.00
11487;BME280;10510;47.942;9.442;2023-04-06T10:31:48;94685.25;;;14.28;100.00
11487;BME280;10510;47.942;9.442;2023-04-06T10:34:00;94679.56;;;14.44;100.00